Wichita Mid Continent Airport
KICT : now visible

Airfield :











YOU CAN JOIN US ON...

 
LOGIN :

Register | Disclaimer

   EN    FR    IT 

 









Legend :    VFR   Marginal VFR   IFR   Intensive IFR   Very Intensive IFR
Visi :
Ceiling :
>= 8 km
>= 3000ft
5 to 8 km
1000 to 3000 ft
1500m to 5 km
500 to 1000 ft
800 to 1500m
200 to 500 ft
< 800m
< 200 ft
Symbols :   Thunderstorms  Fog  Heavy snow  Heavy precipitations  Wind > 20 kt







- Airport Elevation : 1333 ft
- IATA code : ICT


KICT - Wichita Mid Continent

CURRENT METAR :
  • 291653Z 13008KT 10SM FEW045 BKN095 OVC130 28/20 A3019 RMK AO2 SLP208 T02780200

EXPIRED METARs :
  • 291553Z 15008KT 10SM FEW090 SCT120 SCT160 BKN250 28/21 A3018 RMK AO2 SLP205 T02780206
  • 291453Z 15007KT 10SM FEW120 SCT160 SCT250 28/21 A3017 RMK AO2 SLP201 SHRA DSNT SW-W MOVG NW T02780211 51013

TAF KICT
Valid from the 29 at 18:00 until the 30 at 18:00 UTC


291727Z 2918/3018 14010KT P6SM BKN060 BKN100
TEMPO 2922/3002 5SM TSRA BKN035 OVC050CB
FM300200 VRB05KT P6SM SCT015 SCT080 BKN250
FM301500 14007KT P6SM BKN100 BKN250
KZKC FIR / North America



MET'MAP, your aeronautical weather chart ! - Copyright ORBIFLY December 2007 - Disclaimer

ORBIFLY MET'MAP TEAM :

Programming & Development : Alexandra Zaïnal
Concept & Development : Baudouin d'Aumeries
Co-Development & Prog : Marc-Olivier Méhu
Technical & hardware support : Manuel Goepfert

Contact : metmap@orbifly.com




SOURCES & CREDITS :

   NOAA       Earth
Advisory